createdAt,value
2018-12-04T00:00:59.877Z,6.90
2018-12-04T00:03:28.461Z,6.33
2018-12-04T00:05:57.286Z,4.37
2018-12-04T00:08:25.813Z,6.47
2018-12-04T00:10:54.159Z,4.17
2018-12-04T00:13:22.555Z,6.00
2018-12-04T00:15:50.905Z,7.50
2018-12-04T00:18:19.214Z,4.27
2018-12-04T00:20:47.513Z,6.83
2018-12-04T00:23:16.043Z,5.33
2018-12-04T00:25:44.320Z,7.07
2018-12-04T00:28:12.641Z,8.47
2018-12-04T00:30:41.153Z,6.83
2018-12-04T00:33:09.509Z,7.40
2018-12-04T00:35:37.948Z,8.00
2018-12-04T00:38:06.379Z,4.33
2018-12-04T00:40:34.849Z,6.53
2018-12-04T00:43:03.368Z,8.60
2018-12-04T00:45:31.739Z,7.80
2018-12-04T00:48:00.109Z,9.30
2018-12-04T00:50:28.463Z,12.17
2018-12-04T00:52:56.888Z,8.57
2018-12-04T00:55:25.273Z,9.00
2018-12-04T00:57:53.763Z,9.30
2018-12-04T01:00:22.353Z,8.33
2018-12-04T01:02:50.702Z,8.43
2018-12-04T01:05:19.159Z,14.20
2018-12-04T01:07:47.700Z,6.80
2018-12-04T01:10:16.156Z,13.93
2018-12-04T01:12:44.514Z,15.70
2018-12-04T01:15:13.015Z,10.93
2018-12-04T01:17:41.699Z,9.30
2018-12-04T01:20:10.141Z,9.13
2018-12-04T01:22:38.522Z,10.60
2018-12-04T01:25:06.955Z,10.00
2018-12-04T01:27:35.422Z,12.83
2018-12-04T01:30:04.415Z,16.27
2018-12-04T01:32:33.174Z,10.60
2018-12-04T01:35:01.529Z,15.23
2018-12-04T01:37:29.889Z,13.37
2018-12-04T01:39:58.262Z,12.43
2018-12-04T01:42:26.637Z,14.80
2018-12-04T01:44:55.008Z,8.30
2018-12-04T01:47:23.859Z,6.83
2018-12-04T01:49:52.232Z,5.53
2018-12-04T01:52:20.621Z,12.10
2018-12-04T01:54:49.012Z,11.20
2018-12-04T01:57:17.302Z,16.10
2018-12-04T01:59:45.942Z,13.20
2018-12-04T02:02:14.328Z,13.60
2018-12-04T02:04:42.643Z,11.93
2018-12-04T02:07:10.903Z,10.50
2018-12-04T02:09:39.273Z,12.57
2018-12-04T02:12:07.678Z,20.20
2018-12-04T02:14:36.253Z,14.93
2018-12-04T02:17:04.777Z,12.57
2018-12-04T02:19:33.233Z,11.33
2018-12-04T02:22:01.569Z,7.93
2018-12-04T02:24:30.219Z,11.43
2018-12-04T02:26:58.628Z,11.47
2018-12-04T02:29:27.061Z,13.63
2018-12-04T02:31:55.401Z,9.40
2018-12-04T02:34:23.788Z,9.63
2018-12-04T02:36:52.223Z,14.07
2018-12-04T02:39:20.712Z,14.13
2018-12-04T02:41:49.133Z,9.47
2018-12-04T02:44:17.472Z,13.20
2018-12-04T02:46:45.783Z,10.20
2018-12-04T02:49:14.063Z,16.37
2018-12-04T02:51:42.528Z,12.47
2018-12-04T02:54:11.103Z,8.97
2018-12-04T02:56:39.477Z,10.10
2018-12-04T02:59:07.915Z,17.83
2018-12-04T03:01:36.282Z,10.47
2018-12-04T03:04:04.744Z,14.27
2018-12-04T03:06:33.223Z,8.97
2018-12-04T03:09:01.582Z,13.37
2018-12-04T03:11:30.030Z,11.17
2018-12-04T03:13:58.334Z,13.70
2018-12-04T03:16:26.674Z,14.27
2018-12-04T03:18:54.997Z,13.63
2018-12-04T03:21:23.291Z,13.07
2018-12-04T03:23:51.637Z,13.37
2018-12-04T03:26:20.266Z,13.90
2018-12-04T03:28:48.752Z,13.03
2018-12-04T03:31:17.102Z,17.70
2018-12-04T03:33:45.486Z,16.27
2018-12-04T03:36:14.151Z,18.40
2018-12-04T03:38:42.422Z,11.17
2018-12-04T03:41:10.890Z,13.03
2018-12-04T03:43:39.274Z,14.07
2018-12-04T03:46:07.591Z,13.13
2018-12-04T03:48:35.940Z,11.37
2018-12-04T03:51:04.348Z,13.70
2018-12-04T03:53:32.862Z,10.87
2018-12-04T03:56:01.271Z,18.13
2018-12-04T03:58:29.707Z,13.60
2018-12-04T04:00:58.077Z,17.80
2018-12-04T04:03:26.363Z,11.93
2018-12-04T04:05:54.735Z,12.10
2018-12-04T04:08:23.001Z,14.33
2018-12-04T04:10:51.553Z,12.63
2018-12-04T04:13:20.031Z,14.53
2018-12-04T04:15:48.519Z,16.80
2018-12-04T04:18:16.981Z,9.17
2018-12-04T04:20:45.356Z,17.67
2018-12-04T04:23:13.633Z,13.03
2018-12-04T04:25:42.029Z,14.97
2018-12-04T04:28:10.301Z,14.77
2018-12-04T04:30:38.611Z,11.07
2018-12-04T04:33:07.080Z,17.80
2018-12-04T04:35:35.413Z,11.90
2018-12-04T04:38:03.760Z,15.20
2018-12-04T04:40:32.149Z,15.30
2018-12-04T04:43:00.533Z,15.13
2018-12-04T04:45:28.803Z,13.67
2018-12-04T04:47:57.278Z,16.93
2018-12-04T04:50:25.779Z,14.00
2018-12-04T04:52:54.183Z,17.20
2018-12-04T04:55:22.482Z,12.60
2018-12-04T04:57:50.816Z,13.63
2018-12-04T05:00:19.099Z,13.83
2018-12-04T05:02:47.503Z,20.20
2018-12-04T05:05:15.983Z,19.20
2018-12-04T05:07:44.505Z,14.67
2018-12-04T05:10:53.158Z,17.67
2018-12-04T05:13:21.478Z,17.37
2018-12-04T05:15:49.842Z,14.37
2018-12-04T05:18:19.755Z,18.00
2018-12-04T05:20:48.287Z,26.63
2018-12-04T05:23:16.602Z,15.20
2018-12-04T05:25:44.922Z,17.40
2018-12-04T05:28:13.234Z,15.90
2018-12-04T05:30:41.804Z,16.50
2018-12-04T05:33:10.127Z,14.97
2018-12-04T05:35:38.439Z,13.13
2018-12-04T05:38:07.078Z,17.97
2018-12-04T05:40:35.491Z,15.13
2018-12-04T05:43:03.773Z,11.53
2018-12-04T05:45:32.119Z,15.87
2018-12-04T05:48:00.417Z,16.50
2018-12-04T05:50:28.748Z,24.27
2018-12-04T05:53:14.573Z,13.07
2018-12-04T05:55:43.068Z,15.43
2018-12-04T05:58:11.663Z,15.53
2018-12-04T06:00:41.043Z,14.47
2018-12-04T06:03:10.446Z,17.10
2018-12-04T06:05:39.306Z,19.90
2018-12-04T06:08:07.590Z,13.70
2018-12-04T06:10:35.984Z,14.17
2018-12-04T06:13:04.262Z,26.40
2018-12-04T06:15:33.096Z,12.13
2018-12-04T06:18:01.497Z,15.73
2018-12-04T06:20:29.936Z,13.77
2018-12-04T06:22:58.256Z,16.33
2018-12-04T06:25:26.576Z,22.50
2018-12-04T06:27:54.938Z,19.17
2018-12-04T06:30:23.252Z,14.03
2018-12-04T06:32:51.701Z,13.30
2018-12-04T06:35:20.406Z,20.60
2018-12-04T06:37:48.875Z,18.70
2018-12-04T06:40:17.739Z,12.03
2018-12-04T06:42:46.146Z,25.77
2018-12-04T06:45:14.450Z,15.07
2018-12-04T06:47:42.764Z,15.07
2018-12-04T06:50:11.690Z,14.93
2018-12-04T06:52:40.055Z,13.10
2018-12-04T06:55:09.137Z,16.47
2018-12-04T06:57:37.521Z,13.50
2018-12-04T07:00:06.665Z,15.47
2018-12-04T07:02:34.967Z,17.43
2018-12-04T07:05:03.450Z,16.40
2018-12-04T07:07:31.975Z,19.70
2018-12-04T07:10:00.271Z,18.53
2018-12-04T07:12:28.585Z,18.37
2018-12-04T07:14:56.945Z,14.63
2018-12-04T07:17:25.257Z,15.57
2018-12-04T07:19:53.565Z,19.20
2018-12-04T07:22:21.901Z,17.07
2018-12-04T07:24:50.362Z,12.17
2018-12-04T07:27:19.365Z,20.87
2018-12-04T07:29:47.676Z,14.50
2018-12-04T07:32:15.966Z,16.70
2018-12-04T07:34:44.380Z,10.27
2018-12-04T07:37:12.734Z,14.73
2018-12-04T07:39:41.110Z,15.57
2018-12-04T07:42:09.467Z,11.13
2018-12-04T07:44:37.890Z,15.40
2018-12-04T07:47:06.401Z,17.50
2018-12-04T07:49:34.730Z,13.90
2018-12-04T07:52:03.766Z,15.70
2018-12-04T07:54:32.106Z,15.60
2018-12-04T07:57:00.397Z,13.63
2018-12-04T07:59:28.792Z,15.67
2018-12-04T08:01:57.097Z,21.70
2018-12-04T08:04:25.457Z,15.77
2018-12-04T08:06:54.004Z,18.97
2018-12-04T08:09:22.400Z,18.67
2018-12-04T08:11:50.729Z,17.10
2018-12-04T08:14:19.067Z,14.47
2018-12-04T08:16:47.361Z,15.47
2018-12-04T08:19:15.645Z,30.80
2018-12-04T08:21:44.777Z,14.77
2018-12-04T08:24:13.088Z,15.53
2018-12-04T08:26:41.526Z,14.57
2018-12-04T08:29:09.868Z,16.90
2018-12-04T08:31:38.538Z,14.93
2018-12-04T08:34:06.834Z,18.13
2018-12-04T08:36:35.168Z,11.00
2018-12-04T08:39:04.091Z,16.50
2018-12-04T08:41:32.415Z,17.10
2018-12-04T08:44:00.836Z,17.37
2018-12-04T08:46:29.169Z,14.47
2018-12-04T08:48:57.949Z,13.57
2018-12-04T08:54:07.275Z,14.63
2018-12-04T08:56:35.608Z,13.27
2018-12-04T08:59:04.149Z,13.70
2018-12-04T09:01:32.586Z,23.43
2018-12-04T09:04:00.967Z,12.43
2018-12-04T09:06:31.316Z,9.57
2018-12-04T09:08:59.834Z,16.47
2018-12-04T09:11:28.146Z,8.57
2018-12-04T09:13:56.472Z,17.20
2018-12-04T09:16:24.787Z,17.40
2018-12-04T09:18:53.144Z,9.60
2018-12-04T09:21:21.820Z,11.73
2018-12-04T09:23:50.394Z,11.80
2018-12-04T09:26:19.074Z,16.90
2018-12-04T09:28:47.476Z,12.90
2018-12-04T09:31:15.887Z,11.00
2018-12-04T09:33:44.242Z,15.33
2018-12-04T09:36:12.775Z,10.93
2018-12-04T09:38:41.064Z,17.60
2018-12-04T09:41:09.396Z,15.23
2018-12-04T09:43:37.735Z,14.90
2018-12-04T09:46:06.065Z,15.63
2018-12-04T09:48:34.483Z,12.33
2018-12-04T09:51:02.799Z,14.00
2018-12-04T09:53:31.113Z,22.73
2018-12-04T09:55:59.438Z,14.93
2018-12-04T09:58:27.778Z,19.63
2018-12-04T10:00:56.458Z,13.03
2018-12-04T10:03:24.990Z,13.13
2018-12-04T10:05:53.358Z,14.83
2018-12-04T10:08:21.769Z,14.60
2018-12-04T10:10:50.097Z,14.70
2018-12-04T10:13:18.428Z,12.13
2018-12-04T10:15:46.985Z,15.90
2018-12-04T10:18:15.416Z,15.97
2018-12-04T10:20:43.688Z,13.73
2018-12-04T10:23:12.000Z,14.73
2018-12-04T10:25:42.349Z,11.63
2018-12-04T10:28:10.671Z,15.00
2018-12-04T10:30:39.165Z,13.13
2018-12-04T10:33:07.541Z,9.07
2018-12-04T10:35:36.030Z,9.70
2018-12-04T10:38:04.543Z,14.87
2018-12-04T10:40:33.039Z,10.50
2018-12-04T10:43:01.403Z,13.23
2018-12-04T10:45:29.847Z,11.17
2018-12-04T10:47:58.213Z,10.40
2018-12-04T10:50:26.668Z,12.53
2018-12-04T10:52:55.079Z,11.73
2018-12-04T10:55:24.297Z,11.10
2018-12-04T10:57:52.594Z,9.40
2018-12-04T11:00:26.545Z,13.23
2018-12-04T11:02:56.978Z,9.47
2018-12-04T11:05:25.272Z,10.70
2018-12-04T11:07:53.644Z,7.70
2018-12-04T11:10:22.048Z,11.17
2018-12-04T11:12:50.464Z,10.67
2018-12-04T11:15:18.878Z,13.70
2018-12-04T11:17:47.245Z,17.17
2018-12-04T11:20:15.557Z,11.27
2018-12-04T11:22:43.832Z,13.97
2018-12-04T11:25:12.218Z,12.73
2018-12-04T11:27:40.659Z,14.57
2018-12-04T11:30:10.198Z,21.47
2018-12-04T11:32:38.694Z,13.03
2018-12-04T11:35:07.132Z,12.63
2018-12-04T11:37:36.198Z,11.83
2018-12-04T11:40:05.490Z,16.07
2018-12-04T11:42:33.826Z,11.27
2018-12-04T11:45:02.139Z,13.27
2018-12-04T11:47:30.470Z,14.77
2018-12-04T11:49:59.022Z,11.50
2018-12-04T11:52:27.539Z,11.30
2018-12-04T11:54:55.828Z,12.70
2018-12-04T11:57:24.269Z,11.57
2018-12-04T11:59:52.720Z,11.77
2018-12-04T12:02:21.396Z,10.93
2018-12-04T12:04:50.817Z,12.00
2018-12-04T12:07:20.624Z,11.83
2018-12-04T12:09:49.376Z,12.30
2018-12-04T12:12:18.364Z,12.07
2018-12-04T12:14:46.672Z,16.07
2018-12-04T12:17:15.083Z,10.77
2018-12-04T12:19:44.043Z,12.30
2018-12-04T12:22:12.622Z,12.17
2018-12-04T12:24:41.072Z,9.93
2018-12-04T12:27:09.528Z,10.07
2018-12-04T12:29:38.096Z,14.90
2018-12-04T12:32:06.494Z,11.37
2018-12-04T12:34:35.045Z,12.53
2018-12-04T12:37:03.393Z,14.37
2018-12-04T12:39:31.834Z,13.03
2018-12-04T12:42:00.232Z,10.27
2018-12-04T12:44:28.583Z,17.90
2018-12-04T12:46:56.899Z,13.33
2018-12-04T12:49:26.219Z,16.10
2018-12-04T12:51:54.509Z,16.20
2018-12-04T12:54:22.887Z,14.33
2018-12-04T12:56:51.294Z,13.50
2018-12-04T12:59:19.693Z,10.73
2018-12-04T13:01:48.013Z,11.97
2018-12-04T13:04:17.538Z,15.77
2018-12-04T13:06:45.809Z,13.37
2018-12-04T13:09:14.170Z,11.30
2018-12-04T13:11:42.472Z,10.03
2018-12-04T13:14:10.778Z,8.13
2018-12-04T13:16:39.084Z,11.97
2018-12-04T13:19:07.407Z,11.57
2018-12-04T13:21:35.740Z,9.17
2018-12-04T13:24:04.043Z,9.83
2018-12-04T13:26:32.375Z,12.70
2018-12-04T13:29:00.698Z,9.50
2018-12-04T13:31:29.228Z,12.27
2018-12-04T13:33:57.544Z,10.27
2018-12-04T13:36:26.014Z,18.57
2018-12-04T13:38:54.412Z,8.80
2018-12-04T13:41:22.822Z,10.20
2018-12-04T13:43:51.301Z,13.13
2018-12-04T13:46:19.922Z,11.10
2018-12-04T13:48:48.176Z,12.13
2018-12-04T13:51:16.494Z,15.40
2018-12-04T13:53:44.919Z,11.93
2018-12-04T13:56:13.331Z,11.93
2018-12-04T13:58:41.898Z,12.93
2018-12-04T14:01:10.384Z,13.00
2018-12-04T14:03:38.701Z,12.80
2018-12-04T14:06:07.256Z,12.00
2018-12-04T14:08:35.570Z,10.57
2018-12-04T14:11:04.172Z,14.87
2018-12-04T14:13:32.621Z,12.37
2018-12-04T14:16:01.193Z,16.63
2018-12-04T14:18:29.577Z,16.90
2018-12-04T14:20:58.019Z,9.60
2018-12-04T14:23:27.125Z,15.20
2018-12-04T14:25:55.434Z,10.97
2018-12-04T14:28:24.380Z,19.10
2018-12-04T14:30:52.716Z,12.53
2018-12-04T14:33:21.068Z,15.67
2018-12-04T14:35:49.581Z,12.80
2018-12-04T14:38:18.087Z,11.77
2018-12-04T14:40:46.643Z,13.13
2018-12-04T14:43:15.191Z,14.47
2018-12-04T14:45:43.634Z,18.63
2018-12-04T14:48:11.952Z,11.50
2018-12-04T14:50:40.568Z,9.40
2018-12-04T14:53:08.956Z,11.33
2018-12-04T14:55:37.294Z,17.77
2018-12-04T14:58:05.732Z,14.60
2018-12-04T15:00:34.246Z,13.17
2018-12-04T15:03:02.715Z,13.17
2018-12-04T15:05:31.360Z,10.27
2018-12-04T15:07:59.761Z,10.47
2018-12-04T15:10:28.086Z,18.37
2018-12-04T15:12:56.494Z,9.73
2018-12-04T15:15:25.004Z,14.47
2018-12-04T15:17:53.455Z,11.77
2018-12-04T15:20:21.918Z,12.33
2018-12-04T15:22:50.381Z,10.73
2018-12-04T15:25:18.681Z,11.77
2018-12-04T15:27:47.552Z,12.00
2018-12-04T15:30:16.012Z,12.53
2018-12-04T15:32:44.399Z,10.43
2018-12-04T15:35:12.823Z,14.77
2018-12-04T15:37:41.268Z,15.07
2018-12-04T15:40:09.769Z,8.67
2018-12-04T15:42:38.335Z,16.37
2018-12-04T15:45:06.838Z,12.93
2018-12-04T15:47:35.413Z,14.57
2018-12-04T15:50:05.465Z,14.60
2018-12-04T15:52:33.957Z,13.53
2018-12-04T15:55:02.381Z,10.60
2018-12-04T15:57:31.059Z,16.53
2018-12-04T15:59:59.358Z,20.87
2018-12-04T16:02:27.671Z,25.50
2018-12-04T16:04:55.996Z,16.57
2018-12-04T16:07:24.417Z,14.10
2018-12-04T16:09:52.823Z,16.43
2018-12-04T16:12:21.377Z,18.47
2018-12-04T16:14:49.761Z,17.50
2018-12-04T16:17:18.254Z,15.47
2018-12-04T16:19:46.605Z,10.97
2018-12-04T16:22:14.936Z,15.57
2018-12-04T16:24:43.362Z,10.53
2018-12-04T16:27:11.820Z,12.90
2018-12-04T16:29:40.229Z,13.37
2018-12-04T16:32:08.658Z,19.57
2018-12-04T16:34:37.011Z,25.13
2018-12-04T16:37:05.390Z,10.77
2018-12-04T16:39:33.999Z,13.53
2018-12-04T16:42:02.331Z,15.17
2018-12-04T16:44:30.649Z,13.03
2018-12-04T16:46:58.968Z,14.20
2018-12-04T16:49:27.272Z,23.43
2018-12-04T16:51:55.628Z,17.23
2018-12-04T16:54:23.947Z,15.30
2018-12-04T16:56:52.306Z,17.23
2018-12-04T16:59:20.717Z,32.57
2018-12-04T17:01:49.537Z,20.60
2018-12-04T17:04:17.866Z,33.27
2018-12-04T17:06:46.394Z,19.37
2018-12-04T17:09:15.007Z,32.37
2018-12-04T17:11:44.430Z,24.30
2018-12-04T17:14:13.555Z,27.57
2018-12-04T17:16:41.973Z,21.73
2018-12-04T17:19:10.891Z,16.37
2018-12-04T17:21:39.218Z,16.60
2018-12-04T17:24:07.569Z,22.00
2018-12-04T17:26:36.267Z,24.33
2018-12-04T17:29:04.578Z,23.87
2018-12-04T17:31:32.894Z,29.63
2018-12-04T17:34:01.194Z,23.93
2018-12-04T17:36:29.597Z,25.77
2018-12-04T17:38:57.877Z,26.80
2018-12-04T17:41:26.424Z,20.17
2018-12-04T17:43:55.501Z,21.60
2018-12-04T17:46:23.843Z,30.77
2018-12-04T17:48:52.312Z,18.87
2018-12-04T17:51:20.630Z,27.17
2018-12-04T17:53:48.926Z,18.80
2018-12-04T17:56:17.405Z,20.93
2018-12-04T17:58:45.766Z,23.50
2018-12-04T18:01:14.270Z,28.00
2018-12-04T18:03:45.937Z,24.90
2018-12-04T18:06:14.418Z,21.63
2018-12-04T18:08:42.769Z,17.20
2018-12-04T18:11:11.153Z,19.43
2018-12-04T18:13:39.915Z,23.43
2018-12-04T18:16:08.223Z,21.93
2018-12-04T18:18:36.570Z,17.50
2018-12-04T18:21:04.963Z,16.50
2018-12-04T18:23:33.276Z,15.40
2018-12-04T18:26:01.744Z,17.10
2018-12-04T18:28:30.210Z,17.57
2018-12-04T18:30:58.578Z,22.03
2018-12-04T18:33:27.531Z,20.43
2018-12-04T18:35:55.897Z,23.00
2018-12-04T18:38:24.287Z,21.80
2018-12-04T18:40:52.748Z,22.57
2018-12-04T18:43:21.093Z,19.17
2018-12-04T18:45:49.431Z,21.53
2018-12-04T18:48:17.907Z,24.90
2018-12-04T18:50:46.743Z,26.00
2018-12-04T18:53:15.019Z,20.07
2018-12-04T18:55:43.845Z,21.10
2018-12-04T18:58:12.187Z,17.97
2018-12-04T19:00:40.756Z,20.23
2018-12-04T19:03:09.113Z,23.07
2018-12-04T19:05:37.457Z,22.80
2018-12-04T19:08:05.774Z,20.70
2018-12-04T19:10:34.251Z,21.90
2018-12-04T19:13:02.771Z,22.47
2018-12-04T19:15:31.222Z,21.70
2018-12-04T19:17:59.737Z,20.43
2018-12-04T19:20:28.896Z,31.87
2018-12-04T19:22:57.230Z,21.83
2018-12-04T19:25:25.567Z,22.30
2018-12-04T19:27:54.365Z,24.37
2018-12-04T19:30:22.687Z,24.27
2018-12-04T19:32:51.026Z,27.57
2018-12-04T19:35:19.602Z,22.63
2018-12-04T19:37:48.258Z,27.40
2018-12-04T19:40:16.573Z,24.53
2018-12-04T19:42:44.989Z,30.97
2018-12-04T19:45:13.473Z,27.23
2018-12-04T19:47:41.793Z,22.43
2018-12-04T19:50:10.142Z,22.23
2018-12-04T19:52:38.625Z,21.53
2018-12-04T19:55:07.050Z,20.70
2018-12-04T19:57:35.390Z,30.77
2018-12-04T20:00:05.182Z,22.63
2018-12-04T20:02:33.613Z,25.17
2018-12-04T20:05:01.943Z,26.07
2018-12-04T20:07:30.260Z,21.57
2018-12-04T20:09:58.604Z,37.47
2018-12-04T20:12:27.033Z,36.23
2018-12-04T20:14:55.407Z,29.60
2018-12-04T20:17:23.812Z,30.27
2018-12-04T20:19:52.446Z,30.20
2018-12-04T20:22:20.831Z,20.73
2018-12-04T20:24:49.327Z,20.37
2018-12-04T20:27:17.689Z,21.43
2018-12-04T20:29:46.054Z,16.90
2018-12-04T20:32:14.450Z,20.97
2018-12-04T20:34:42.784Z,20.70
2018-12-04T20:37:14.917Z,29.57
2018-12-04T20:39:43.321Z,22.60
2018-12-04T20:42:11.649Z,17.70
2018-12-04T20:44:40.232Z,21.83
2018-12-04T20:47:08.572Z,32.30
2018-12-04T20:49:37.045Z,19.93
2018-12-04T20:52:05.557Z,23.83
2018-12-04T20:54:33.971Z,19.00
2018-12-04T20:57:03.102Z,21.93
2018-12-04T20:59:31.424Z,21.57
2018-12-04T21:01:59.876Z,21.83
2018-12-04T21:04:28.200Z,15.27
2018-12-04T21:06:56.499Z,19.47
2018-12-04T21:09:25.017Z,23.43
2018-12-04T21:11:53.559Z,19.83
2018-12-04T21:14:21.884Z,23.87
2018-12-04T21:16:50.226Z,18.83
2018-12-04T21:19:18.546Z,22.53
2018-12-04T21:21:46.904Z,23.13
2018-12-04T21:24:15.210Z,19.07
2018-12-04T21:26:43.550Z,23.33
2018-12-04T21:32:24.131Z,17.10
2018-12-04T21:34:57.962Z,16.00
2018-12-04T21:37:31.915Z,28.20
2018-12-04T21:40:05.893Z,22.60
2018-12-04T21:42:39.814Z,27.23
2018-12-04T21:45:14.004Z,23.73
2018-12-04T21:47:47.862Z,19.17
2018-12-04T21:50:16.184Z,24.23
2018-12-04T21:52:44.518Z,24.37
2018-12-04T21:55:12.879Z,21.20
2018-12-04T21:57:41.322Z,22.67
2018-12-04T22:00:10.259Z,23.77
2018-12-04T22:02:38.556Z,23.20
2018-12-04T22:05:06.990Z,21.33
2018-12-04T22:07:35.297Z,23.07
2018-12-04T22:10:06.371Z,20.27
2018-12-04T22:12:34.715Z,27.13
2018-12-04T22:15:03.225Z,20.23
2018-12-04T22:17:31.551Z,20.13
2018-12-04T22:20:00.107Z,18.23
2018-12-04T22:22:28.426Z,24.97
2018-12-04T22:24:56.854Z,20.97
2018-12-04T22:27:25.185Z,23.83
2018-12-04T22:29:53.695Z,22.77
2018-12-04T22:32:21.985Z,20.97
2018-12-04T22:34:50.425Z,20.70
2018-12-04T22:37:19.189Z,22.93
2018-12-04T22:39:47.555Z,22.43
2018-12-04T22:42:16.345Z,23.60
2018-12-04T22:44:44.737Z,20.13
2018-12-04T22:47:13.156Z,26.10
2018-12-04T22:49:41.690Z,20.50
2018-12-04T22:52:10.004Z,22.57
2018-12-04T22:54:38.353Z,19.90
2018-12-04T22:57:06.656Z,14.03
2018-12-04T22:59:34.975Z,30.60
2018-12-04T23:02:03.465Z,20.57
2018-12-04T23:04:31.777Z,17.30
2018-12-04T23:07:01.387Z,19.23
2018-12-04T23:09:29.755Z,21.53
2018-12-04T23:11:58.070Z,20.07
2018-12-04T23:14:26.499Z,24.80
2018-12-04T23:16:56.614Z,19.70
2018-12-04T23:19:25.028Z,20.67
2018-12-04T23:21:53.342Z,21.00
2018-12-04T23:24:21.708Z,21.43
2018-12-04T23:26:50.263Z,24.20
2018-12-04T23:29:18.598Z,24.00
2018-12-04T23:31:46.873Z,24.57
2018-12-04T23:34:15.194Z,22.63
2018-12-04T23:36:43.530Z,19.00
2018-12-04T23:39:11.863Z,21.93
2018-12-04T23:41:40.212Z,21.03
2018-12-04T23:44:08.664Z,26.30
2018-12-04T23:46:37.107Z,15.73
2018-12-04T23:49:05.517Z,22.40
2018-12-04T23:51:33.858Z,22.70
2018-12-04T23:54:02.198Z,23.73
2018-12-04T23:56:30.490Z,20.00
2018-12-04T23:58:58.794Z,22.73
